Time;durP1;ratioP1;P1;durP2;ratioP2;P2;SDS_P1;SDS_P2;PMS_P1;PMS_P2;Temp;Humidity;BMP_temperature;BMP_pressure;BME280_temperature;BME280_humidity;BME280_pressure;Samples;Min_cycle;Max_cycle;Signal;HPM_P1;HPM_P2
2023/04/03 00:00:12;;;;;;;3.50;1.52;;;2.40;99.90;;;;;;5004810;28;20038;-32
2023/04/03 00:02:38;;;;;;;1.70;1.20;;;2.30;99.90;;;;;;5006794;28;20037;-34
2023/04/03 00:05:04;;;;;;;3.05;1.25;;;2.20;99.90;;;;;;5009336;28;20045;-33
2023/04/03 00:07:30;;;;;;;3.30;1.30;;;2.30;99.90;;;;;;4998825;28;20134;-33
2023/04/03 00:09:56;;;;;;;5.78;2.05;;;2.20;99.90;;;;;;5002318;28;20122;-33
2023/04/03 00:12:21;;;;;;;2.35;1.48;;;2.30;99.90;;;;;;4997977;28;20065;-32
2023/04/03 00:14:47;;;;;;;2.55;1.60;;;2.30;99.90;;;;;;4987405;28;20038;-33
2023/04/03 00:17:13;;;;;;;4.18;1.83;;;2.30;99.90;;;;;;5007767;28;20042;-32
2023/04/03 00:19:38;;;;;;;4.00;1.40;;;2.20;99.90;;;;;;5004342;28;20038;-33
2023/04/03 00:22:04;;;;;;;2.70;1.17;;;2.40;99.90;;;;;;4978915;28;20101;-34
2023/04/03 00:24:30;;;;;;;4.10;1.58;;;2.30;99.90;;;;;;5002803;28;20038;-33
2023/04/03 00:26:56;;;;;;;3.15;1.38;;;2.30;99.90;;;;;;4991199;28;20038;-33
2023/04/03 00:29:21;;;;;;;3.15;1.58;;;2.20;99.90;;;;;;5000831;28;20048;-34
2023/04/03 00:31:47;;;;;;;3.60;1.42;;;2.30;99.90;;;;;;5005749;28;20034;-33
2023/04/03 00:34:13;;;;;;;1.88;1.30;;;2.30;99.90;;;;;;5004502;28;20392;-32
2023/04/03 00:36:38;;;;;;;1.95;1.27;;;2.20;99.90;;;;;;5004079;28;20066;-34
2023/04/03 00:39:04;;;;;;;4.28;1.75;;;2.20;99.90;;;;;;5009459;28;20084;-34
2023/04/03 00:41:30;;;;;;;4.05;1.50;;;2.20;99.90;;;;;;5006057;28;20069;-32
2023/04/03 00:43:55;;;;;;;3.20;1.83;;;2.30;99.90;;;;;;4991289;28;20049;-32
2023/04/03 00:46:21;;;;;;;4.82;2.03;;;2.10;99.90;;;;;;4996376;28;20044;-33
2023/04/03 00:48:48;;;;;;;3.55;1.50;;;2.10;99.90;;;;;;5008299;28;20034;-33
2023/04/03 00:51:19;;;;;;;4.75;1.70;;;2.20;99.90;;;;;;5007094;28;20037;-33
2023/04/03 00:53:50;;;;;;;3.13;1.70;;;2.10;99.90;;;;;;5003029;28;20022;-33
2023/04/03 00:56:19;;;;;;;2.20;1.70;;;2.00;99.90;;;;;;4991948;28;20041;-33
2023/04/03 00:58:50;;;;;;;2.38;1.85;;;2.00;99.90;;;;;;5003743;28;20041;-31
2023/04/03 01:01:20;;;;;;;2.03;1.63;;;1.90;99.90;;;;;;5000899;28;20121;-32
2023/04/03 01:03:46;;;;;;;3.47;1.85;;;2.00;99.90;;;;;;4998462;28;20546;-32
2023/04/03 01:06:16;;;;;;;3.47;1.50;;;1.90;99.90;;;;;;5000628;28;20141;-34
2023/04/03 01:08:41;;;;;;;4.13;1.95;;;1.90;99.90;;;;;;5000336;28;20037;-33
2023/04/03 01:11:07;;;;;;;5.78;2.05;;;2.00;99.90;;;;;;5002605;28;20122;-34
2023/04/03 01:13:33;;;;;;;2.45;1.65;;;2.00;99.90;;;;;;5005360;28;20049;-33
2023/04/03 01:16:04;;;;;;;3.22;1.80;;;1.90;99.90;;;;;;4999223;28;20081;-33
2023/04/03 01:18:30;;;;;;;2.83;1.73;;;1.90;99.90;;;;;;5003532;28;20038;-33
2023/04/03 01:21:14;;;;;;;1.95;1.70;;;1.90;99.90;;;;;;5001864;28;20413;-33
2023/04/03 01:24:15;;;;;;;2.75;1.80;;;1.70;99.90;;;;;;5003928;28;20040;-32
2023/04/03 01:26:41;;;;;;;3.03;2.70;;;1.70;99.90;;;;;;4999554;28;20034;-33
2023/04/03 01:29:07;;;;;;;3.08;1.70;;;1.70;99.90;;;;;;5006629;28;20042;-32
2023/04/03 01:31:44;;;;;;;3.47;2.15;;;1.80;99.90;;;;;;4993505;28;20153;-33
2023/04/03 01:34:10;;;;;;;6.30;2.47;;;1.70;99.90;;;;;;5000871;28;20053;-32
2023/04/03 01:36:36;;;;;;;3.15;1.90;;;1.70;99.90;;;;;;5002047;28;20221;-33
2023/04/03 01:39:02;;;;;;;3.30;2.00;;;1.70;99.90;;;;;;5007920;28;20041;-33
2023/04/03 01:41:28;;;;;;;3.05;1.95;;;1.70;99.90;;;;;;4999664;28;20065;-33
2023/04/03 01:43:53;;;;;;;6.68;2.05;;;1.60;99.90;;;;;;4999704;28;20455;-33
2023/04/03 01:46:20;;;;;;;3.67;2.03;;;1.60;99.90;;;;;;5007965;28;20081;-32
2023/04/03 01:48:46;;;;;;;4.55;1.90;;;1.60;99.90;;;;;;4999590;28;20098;-32
2023/04/03 01:51:11;;;;;;;3.90;2.05;;;1.40;99.90;;;;;;4995623;28;20034;-32
2023/04/03 01:53:37;;;;;;;3.80;1.95;;;1.50;99.90;;;;;;5000078;28;20041;-32
2023/04/03 01:56:03;;;;;;;4.25;1.90;;;1.50;99.90;;;;;;5016980;28;20077;-33
2023/04/03 01:58:29;;;;;;;3.95;2.22;;;1.50;99.90;;;;;;5009431;28;20041;-32
2023/04/03 02:00:55;;;;;;;5.40;2.50;;;1.50;99.90;;;;;;5006167;28;20041;-33
2023/04/03 02:03:21;;;;;;;3.20;2.00;;;1.40;99.90;;;;;;5009852;28;20323;-33
2023/04/03 02:05:47;;;;;;;2.80;2.08;;;1.50;99.90;;;;;;4999540;28;20052;-32
2023/04/03 02:08:13;;;;;;;3.90;2.60;;;1.40;99.90;;;;;;5007887;28;20562;-32
2023/04/03 02:10:39;;;;;;;4.97;2.47;;;1.30;99.90;;;;;;4997894;28;20073;-32
2023/04/03 02:13:05;;;;;;;4.47;2.22;;;1.30;99.90;;;;;;5001301;28;20040;-33
2023/04/03 02:15:31;;;;;;;3.85;2.42;;;1.50;99.90;;;;;;5002451;28;20096;-33
2023/04/03 02:17:57;;;;;;;5.75;2.20;;;1.30;99.90;;;;;;5002338;28;20046;-32
2023/04/03 02:20:23;;;;;;;5.35;2.10;;;1.40;99.90;;;;;;4999097;28;20037;-33
2023/04/03 02:22:48;;;;;;;2.83;2.00;;;1.30;99.90;;;;;;5002455;28;20038;-33
2023/04/03 02:25:14;;;;;;;3.72;2.78;;;1.20;99.90;;;;;;4999758;28;20042;-32
2023/04/03 02:27:40;;;;;;;2.67;2.20;;;1.30;99.90;;;;;;5007043;28;20049;-32
2023/04/03 02:30:06;;;;;;;6.10;2.60;;;1.20;99.90;;;;;;5002965;28;20065;-33
2023/04/03 02:32:32;;;;;;;3.00;2.38;;;1.30;99.90;;;;;;4994563;28;20042;-33
2023/04/03 02:34:58;;;;;;;3.55;2.20;;;1.20;99.90;;;;;;4999052;28;20419;-32
2023/04/03 02:37:23;;;;;;;5.10;2.78;;;1.10;99.90;;;;;;5002682;28;20078;-33
2023/04/03 02:39:49;;;;;;;4.97;2.10;;;1.20;99.90;;;;;;5008823;28;20492;-33
2023/04/03 02:42:15;;;;;;;5.63;2.45;;;1.20;99.90;;;;;;5001888;28;20044;-33
2023/04/03 02:44:41;;;;;;;5.15;2.88;;;1.10;99.90;;;;;;5001151;28;20042;-33
2023/04/03 02:47:06;;;;;;;3.88;2.50;;;1.20;99.90;;;;;;5001013;28;20430;-33
2023/04/03 02:49:32;;;;;;;3.60;2.33;;;1.00;99.90;;;;;;5001159;28;20093;-32
2023/04/03 02:51:58;;;;;;;3.50;2.25;;;1.00;99.90;;;;;;4998456;28;20141;-32
2023/04/03 02:54:27;;;;;;;6.07;2.60;;;1.00;99.90;;;;;;5008065;28;20395;-33
2023/04/03 02:56:53;;;;;;;5.50;2.50;;;1.00;99.90;;;;;;5001413;28;20037;-33
2023/04/03 02:59:19;;;;;;;5.35;2.60;;;1.00;99.90;;;;;;5002058;28;20048;-32
2023/04/03 03:01:46;;;;;;;4.47;2.38;;;0.90;99.90;;;;;;4995932;28;20039;-32
2023/04/03 03:04:11;;;;;;;3.47;2.20;;;1.00;99.90;;;;;;5002795;28;20045;-32
2023/04/03 03:06:37;;;;;;;4.07;2.28;;;0.80;99.90;;;;;;5010009;28;20041;-32
2023/04/03 03:09:03;;;;;;;4.55;2.83;;;0.90;99.90;;;;;;4997096;28;20041;-33
2023/04/03 03:11:30;;;;;;;6.03;2.55;;;0.70;99.90;;;;;;5006452;28;20714;-33
2023/04/03 03:13:55;;;;;;;5.35;2.42;;;0.70;99.90;;;;;;5001357;28;20074;-32
2023/04/03 03:16:21;;;;;;;5.28;2.83;;;0.60;99.90;;;;;;4998377;28;20495;-32
2023/04/03 03:18:47;;;;;;;5.03;2.35;;;0.70;99.90;;;;;;5013784;28;20049;-32
2023/04/03 03:21:13;;;;;;;3.72;2.40;;;0.50;99.90;;;;;;4989197;28;20093;-32
2023/04/03 03:23:39;;;;;;;5.82;2.95;;;0.60;99.90;;;;;;5006685;28;20049;-33
2023/04/03 03:26:07;;;;;;;2.85;2.10;;;0.50;99.90;;;;;;5002582;28;20033;-33
2023/04/03 03:28:34;;;;;;;5.88;2.58;;;0.60;99.90;;;;;;5008042;28;20034;-33
2023/04/03 03:31:00;;;;;;;7.50;2.28;;;0.30;99.90;;;;;;5001655;28;20125;-32
2023/04/03 03:33:26;;;;;;;4.20;2.60;;;0.30;99.90;;;;;;5013222;28;20029;-32
2023/04/03 03:35:53;;;;;;;4.82;2.60;;;0.30;99.90;;;;;;5008085;28;20483;-32
2023/04/03 03:38:19;;;;;;;4.22;2.47;;;0.20;99.90;;;;;;4997813;28;20030;-32
2023/04/03 03:40:47;;;;;;;5.95;3.28;;;0.30;99.90;;;;;;4999856;28;20042;-33
2023/04/03 03:43:13;;;;;;;4.72;2.70;;;0.20;99.90;;;;;;5002094;28;20108;-33
2023/04/03 03:45:39;;;;;;;3.38;2.38;;;0.20;99.90;;;;;;4984995;28;20490;-32
2023/04/03 03:48:05;;;;;;;5.28;2.47;;;0.10;99.90;;;;;;4996074;28;20404;-32
2023/04/03 03:50:30;;;;;;;3.83;2.28;;;0.20;99.90;;;;;;4989478;28;20033;-32
2023/04/03 03:52:56;;;;;;;6.78;2.83;;;0.10;99.90;;;;;;4999995;28;20066;-32
2023/04/03 03:55:22;;;;;;;4.28;2.33;;;0.00;99.90;;;;;;5012648;28;20045;-33
2023/04/03 03:57:48;;;;;;;3.63;2.80;;;0.10;99.90;;;;;;5002729;28;20476;-33
2023/04/03 04:00:14;;;;;;;4.72;2.60;;;0.00;99.90;;;;;;5005137;28;20080;-32
2023/04/03 04:02:39;;;;;;;7.05;2.97;;;0.10;99.90;;;;;;4999623;28;20121;-33
2023/04/03 04:05:06;;;;;;;5.60;2.00;;;0.20;99.90;;;;;;5002136;28;20125;-33
2023/04/03 04:07:31;;;;;;;6.07;2.50;;;0.10;99.90;;;;;;5005896;28;20049;-33
2023/04/03 04:09:57;;;;;;;4.25;2.35;;;0.00;99.90;;;;;;5009521;28;20495;-32
2023/04/03 04:12:22;;;;;;;5.80;2.80;;;0.10;99.90;;;;;;5008388;28;20042;-32
2023/04/03 04:14:48;;;;;;;4.78;2.50;;;0.10;99.90;;;;;;4995308;28;20031;-33
2023/04/03 04:17:14;;;;;;;5.07;2.53;;;0.00;99.90;;;;;;5012567;28;20116;-33
2023/04/03 04:19:40;;;;;;;6.88;3.13;;;0.10;99.90;;;;;;5006663;28;20060;-33
2023/04/03 04:22:06;;;;;;;7.18;2.67;;;0.00;99.90;;;;;;5012312;28;20081;-32
2023/04/03 04:24:32;;;;;;;5.97;2.90;;;0.00;99.90;;;;;;5005727;28;20049;-32
2023/04/03 04:26:57;;;;;;;5.00;3.15;;;0.00;99.90;;;;;;5001864;28;20068;-32
2023/04/03 04:29:23;;;;;;;6.85;2.63;;;0.10;99.90;;;;;;5006725;28;20042;-31
2023/04/03 04:31:49;;;;;;;6.13;2.67;;;0.00;99.90;;;;;;4997338;28;20031;-32
2023/04/03 04:34:15;;;;;;;3.53;2.63;;;-0.10;99.90;;;;;;4997119;28;20038;-32
2023/04/03 04:36:41;;;;;;;5.22;3.10;;;0.10;99.90;;;;;;5006511;28;20047;-32
2023/04/03 04:39:07;;;;;;;3.70;2.70;;;0.00;99.90;;;;;;5011306;28;20096;-33
2023/04/03 04:41:34;;;;;;;5.55;3.58;;;0.00;99.90;;;;;;5003667;28;20431;-33
2023/04/03 04:44:00;;;;;;;7.03;2.90;;;-0.20;99.90;;;;;;5002648;28;20042;-32
2023/04/03 04:46:26;;;;;;;4.22;2.58;;;-0.10;99.90;;;;;;5008192;28;20034;-32
2023/04/03 04:48:51;;;;;;;4.32;2.80;;;-0.30;99.90;;;;;;5011017;28;20042;-33
2023/04/03 04:51:17;;;;;;;5.13;2.65;;;-0.10;99.90;;;;;;5007471;28;20034;-32
2023/04/03 04:53:43;;;;;;;6.45;2.90;;;-0.10;99.90;;;;;;5000947;28;20045;-32
2023/04/03 04:56:09;;;;;;;3.85;2.60;;;-0.30;99.90;;;;;;5007839;28;20040;-33
2023/04/03 04:58:35;;;;;;;6.10;2.80;;;-0.40;99.90;;;;;;4998294;28;20042;-32
2023/04/03 05:01:03;;;;;;;6.78;3.38;;;-0.40;99.90;;;;;;5002519;28;20038;-33
2023/04/03 05:03:28;;;;;;;6.30;2.80;;;-0.40;99.90;;;;;;5005453;28;20069;-32
2023/04/03 05:05:54;;;;;;;3.97;2.78;;;-0.30;99.90;;;;;;5003126;28;20074;-32
2023/04/03 05:08:20;;;;;;;4.90;3.00;;;-0.30;99.90;;;;;;5004495;28;20096;-32
2023/04/03 05:10:46;;;;;;;7.70;2.75;;;-0.40;99.90;;;;;;5003530;28;20049;-32
2023/04/03 05:13:12;;;;;;;4.43;2.72;;;-0.50;99.90;;;;;;5002802;28;20042;-32
2023/04/03 05:15:38;;;;;;;5.78;3.30;;;-0.50;99.90;;;;;;4966452;28;20034;-32
2023/04/03 05:18:04;;;;;;;6.07;2.50;;;-0.30;99.90;;;;;;5006082;28;20089;-33
2023/04/03 05:20:31;;;;;;;4.82;2.88;;;-0.40;99.90;;;;;;5005627;28;20041;-33
2023/04/03 05:22:56;;;;;;;6.18;3.05;;;-0.40;99.90;;;;;;4996840;28;20540;-32
2023/04/03 05:25:23;;;;;;;4.30;2.58;;;-0.60;99.90;;;;;;5006497;28;20113;-33
2023/04/03 05:28:00;;;;;;;5.22;2.70;;;-0.40;99.90;;;;;;4976376;28;20046;-31
2023/04/03 05:30:25;;;;;;;6.07;2.90;;;-0.60;99.90;;;;;;5010563;28;20120;-34
2023/04/03 05:32:51;;;;;;;6.82;2.90;;;-0.30;99.90;;;;;;4993295;28;20173;-34
2023/04/03 05:35:17;;;;;;;4.53;2.60;;;-0.40;99.90;;;;;;4993844;28;20125;-35
2023/04/03 05:37:43;;;;;;;4.20;2.72;;;-0.40;99.90;;;;;;4991382;28;20286;-35
2023/04/03 05:40:09;;;;;;;7.10;3.03;;;-0.20;99.90;;;;;;5001993;28;20086;-34
2023/04/03 05:42:34;;;;;;;5.07;2.72;;;-0.10;99.90;;;;;;5003356;28;20031;-34
2023/04/03 05:45:00;;;;;;;6.32;3.03;;;-0.10;99.90;;;;;;4994422;28;20045;-34
2023/04/03 05:47:26;;;;;;;5.15;2.60;;;0.00;99.90;;;;;;5009363;28;20131;-35
2023/04/03 05:49:51;;;;;;;4.60;2.50;;;-0.20;99.90;;;;;;4984864;28;20038;-34
2023/04/03 05:52:27;;;;;;;4.55;2.63;;;-0.10;99.90;;;;;;4987303;28;20038;-35
2023/04/03 05:54:54;;;;;;;7.75;3.05;;;0.20;99.90;;;;;;4994433;28;20165;-35
2023/04/03 05:57:20;;;;;;;4.65;2.42;;;0.00;99.90;;;;;;5001931;28;20076;-34
2023/04/03 05:59:46;;;;;;;6.00;2.15;;;0.10;99.90;;;;;;4998739;28;20513;-35
2023/04/03 06:02:17;;;;;;;2.83;2.20;;;0.30;99.90;;;;;;4988543;28;20046;-35
2023/04/03 06:04:43;;;;;;;4.53;2.25;;;0.40;99.90;;;;;;5007816;28;20036;-35
2023/04/03 06:07:15;;;;;;;4.53;2.40;;;0.20;99.90;;;;;;4998928;28;20042;-35
2023/04/03 06:09:41;;;;;;;7.85;2.75;;;0.50;99.90;;;;;;4993999;28;20088;-34
2023/04/03 06:12:08;;;;;;;7.70;2.75;;;0.50;99.90;;;;;;5000325;28;20457;-34
2023/04/03 06:14:34;;;;;;;4.05;2.72;;;0.50;99.90;;;;;;4992902;28;20034;-34
2023/04/03 06:17:01;;;;;;;9.13;2.53;;;0.50;99.90;;;;;;4995508;28;20046;-34
2023/04/03 06:19:27;;;;;;;5.20;2.92;;;0.40;99.90;;;;;;4999381;28;20109;-35
2023/04/03 06:21:53;;;;;;;4.70;2.45;;;0.50;99.90;;;;;;4996813;28;20042;-35
2023/04/03 06:24:21;;;;;;;7.85;2.55;;;0.50;99.90;;;;;;5009322;28;20097;-34
2023/04/03 06:26:47;;;;;;;5.78;2.45;;;0.60;99.90;;;;;;4998613;28;20410;-34
2023/04/03 06:29:13;;;;;;;3.80;2.50;;;0.70;99.90;;;;;;4999135;28;20085;-35
2023/04/03 06:31:39;;;;;;;3.45;2.13;;;0.90;99.90;;;;;;5000354;28;20483;-35
2023/04/03 06:34:07;;;;;;;8.30;2.78;;;1.00;99.90;;;;;;5007986;28;20041;-35
2023/04/03 06:36:32;;;;;;;5.75;2.63;;;0.90;99.90;;;;;;4994095;28;20451;-34
2023/04/03 06:38:58;;;;;;;6.40;2.58;;;1.10;99.90;;;;;;5006938;28;20042;-35
2023/04/03 06:41:25;;;;;;;8.55;2.75;;;1.20;99.90;;;;;;5000759;28;20037;-34
2023/04/03 06:43:51;;;;;;;4.88;2.42;;;1.20;99.90;;;;;;4998580;28;20042;-35
2023/04/03 06:46:18;;;;;;;4.35;2.40;;;1.20;99.90;;;;;;5004992;28;20395;-34
2023/04/03 06:48:45;;;;;;;5.88;2.20;;;1.30;99.90;;;;;;4984569;28;20042;-34
2023/04/03 06:51:25;;;;;;;6.85;2.22;;;1.50;99.90;;;;;;5005827;28;20034;-35
2023/04/03 06:53:53;;;;;;;3.08;2.47;;;1.50;99.90;;;;;;5001095;28;20080;-34
2023/04/03 06:56:19;;;;;;;6.00;2.55;;;1.60;99.90;;;;;;4993331;28;20038;-35
2023/04/03 06:58:46;;;;;;;4.07;1.90;;;1.70;99.90;;;;;;4997358;28;20117;-35
2023/04/03 07:01:13;;;;;;;3.67;1.77;;;1.80;99.90;;;;;;5002008;28;20105;-34
2023/04/03 07:03:39;;;;;;;6.03;2.17;;;1.70;99.90;;;;;;5003251;28;20415;-34
2023/04/03 07:06:06;;;;;;;3.35;2.00;;;1.90;99.90;;;;;;5000717;28;20042;-35
2023/04/03 07:08:33;;;;;;;5.57;2.05;;;1.80;99.90;;;;;;4989752;28;20034;-34
2023/04/03 07:10:59;;;;;;;4.45;1.88;;;1.90;99.90;;;;;;4990608;28;20050;-34
2023/04/03 07:13:25;;;;;;;6.80;2.10;;;1.90;99.90;;;;;;5004150;28;20049;-35
2023/04/03 07:15:50;;;;;;;4.57;2.00;;;2.20;99.90;;;;;;4980609;28;20031;-34
2023/04/03 07:18:19;;;;;;;4.85;2.03;;;2.20;99.90;;;;;;4995656;28;20045;-34
2023/04/03 07:20:45;;;;;;;5.05;2.35;;;2.30;99.90;;;;;;4999732;28;20419;-35
2023/04/03 07:23:11;;;;;;;4.93;2.42;;;2.30;99.90;;;;;;4994613;28;20034;-35
2023/04/03 07:25:42;;;;;;;5.30;1.90;;;2.40;99.90;;;;;;4997123;28;20048;-34
2023/04/03 07:28:08;;;;;;;4.50;2.10;;;2.60;99.90;;;;;;4991882;28;20141;-35
2023/04/03 07:30:34;;;;;;;6.72;2.45;;;2.60;99.90;;;;;;4998285;28;20034;-35
2023/04/03 07:33:00;;;;;;;3.05;1.90;;;2.60;99.90;;;;;;5002164;28;20415;-35
2023/04/03 07:35:26;;;;;;;4.95;1.80;;;2.80;99.90;;;;;;5003281;28;20033;-35
2023/04/03 07:37:53;;;;;;;5.07;1.70;;;2.80;99.90;;;;;;4993522;28;20046;-35
2023/04/03 07:40:18;;;;;;;8.10;2.00;;;2.90;99.90;;;;;;4993413;28;20048;-35
2023/04/03 07:42:45;;;;;;;3.25;2.10;;;3.10;99.90;;;;;;5007096;28;20487;-35
2023/04/03 07:45:11;;;;;;;7.45;2.78;;;3.20;99.90;;;;;;5003473;28;20104;-35
2023/04/03 07:47:36;;;;;;;3.70;1.80;;;3.50;99.90;;;;;;5000892;28;20030;-35
2023/04/03 07:50:02;;;;;;;2.03;1.30;;;3.60;99.90;;;;;;4999682;28;20037;-35
2023/04/03 07:52:28;;;;;;;5.03;1.90;;;3.80;99.90;;;;;;4992318;28;20041;-34
2023/04/03 07:54:54;;;;;;;4.40;1.67;;;3.90;99.90;;;;;;4995283;28;20058;-35
2023/04/03 07:57:20;;;;;;;4.28;1.85;;;4.20;99.90;;;;;;5003193;28;20711;-35
2023/04/03 07:59:45;;;;;;;5.20;1.70;;;4.50;99.90;;;;;;5006372;28;20046;-35
2023/04/03 08:02:12;;;;;;;2.72;1.80;;;4.70;99.90;;;;;;5004578;28;20054;-35
2023/04/03 08:04:38;;;;;;;4.03;1.90;;;5.10;99.90;;;;;;5005249;28;20049;-35
2023/04/03 08:07:04;;;;;;;4.10;1.70;;;5.20;99.90;;;;;;5004168;28;20037;-35
2023/04/03 08:09:31;;;;;;;6.53;1.63;;;5.50;99.90;;;;;;5006064;28;20068;-35
2023/04/03 08:11:57;;;;;;;3.47;1.40;;;5.70;99.90;;;;;;5007972;28;20124;-35
2023/04/03 08:14:23;;;;;;;3.00;1.30;;;5.80;99.90;;;;;;5005179;28;20026;-35
2023/04/03 08:16:49;;;;;;;2.85;1.42;;;6.10;99.90;;;;;;5009042;28;20522;-35
2023/04/03 08:19:17;;;;;;;3.72;1.63;;;6.30;99.90;;;;;;5001764;28;20045;-35
2023/04/03 08:21:42;;;;;;;3.25;1.50;;;6.50;99.90;;;;;;5006294;28;20066;-35
2023/04/03 08:24:09;;;;;;;4.03;1.60;;;6.70;99.90;;;;;;5002709;28;20155;-35
2023/04/03 08:26:35;;;;;;;2.88;1.50;;;6.80;99.90;;;;;;5010756;28;20171;-35
2023/04/03 08:29:01;;;;;;;2.50;1.30;;;7.00;99.90;;;;;;5011120;28;20096;-35
2023/04/03 08:31:27;;;;;;;4.03;1.50;;;7.20;99.90;;;;;;4994570;28;20030;-35
2023/04/03 08:33:53;;;;;;;4.22;1.35;;;7.40;99.90;;;;;;5008433;28;20026;-35
2023/04/03 08:36:29;;;;;;;4.53;1.52;;;7.40;99.90;;;;;;5004165;28;20030;-36
2023/04/03 08:38:56;;;;;;;1.98;1.38;;;7.70;99.90;;;;;;5007170;28;20046;-36
2023/04/03 08:41:34;;;;;;;3.55;1.33;;;7.90;99.90;;;;;;4998658;28;20038;-36
2023/04/03 08:44:00;;;;;;;2.85;1.00;;;8.20;99.90;;;;;;5015544;28;20042;-36
2023/04/03 08:46:47;;;;;;;2.92;1.00;;;8.40;99.90;;;;;;5005124;28;20041;-36
2023/04/03 08:49:25;;;;;;;3.67;1.40;;;8.70;99.90;;;;;;5000622;28;20053;-36
2023/04/03 08:51:52;;;;;;;2.38;1.42;;;9.00;99.90;;;;;;5000303;28;20042;-36
2023/04/03 08:54:30;;;;;;;3.30;1.40;;;9.30;99.90;;;;;;4999456;28;20483;-36
2023/04/03 08:56:57;;;;;;;3.95;1.05;;;9.60;76.10;;;;;;5002281;28;20518;-36
2023/04/03 08:59:36;;;;;;;1.77;0.80;;;9.60;99.90;;;;;;4999194;28;20034;-36
2023/04/03 09:02:17;;;;;;;2.33;1.10;;;9.90;78.60;;;;;;5003353;28;20042;-35
2023/04/03 09:04:43;;;;;;;1.80;0.88;;;9.70;93.60;;;;;;5003477;28;20112;-34
2023/04/03 09:07:16;;;;;;;2.88;1.10;;;9.70;99.90;;;;;;4997916;28;20488;-34
2023/04/03 09:09:42;;;;;;;2.70;1.13;;;10.20;78.90;;;;;;4988209;28;20116;-36
2023/04/03 09:12:17;;;;;;;3.28;1.48;;;10.10;74.80;;;;;;5006747;28;20624;-36
2023/04/03 09:15:01;;;;;;;4.38;1.95;;;10.10;75.80;;;;;;4973587;28;20035;-37
2023/04/03 09:17:51;;;;;;;1.83;1.30;;;10.40;72.40;;;;;;4992325;28;20041;-35
2023/04/03 09:20:20;;;;;;;3.70;1.50;;;10.50;80.20;;;;;;5005682;28;20391;-37
2023/04/03 09:22:46;;;;;;;1.98;1.00;;;10.70;82.10;;;;;;4989427;28;20069;-34
2023/04/03 09:25:22;;;;;;;3.17;1.10;;;10.70;77.40;;;;;;4997592;28;20526;-35
2023/04/03 09:27:49;;;;;;;2.50;1.10;;;10.80;64.40;;;;;;4979090;28;20038;-34
2023/04/03 09:30:19;;;;;;;2.78;1.00;;;11.00;70.30;;;;;;5004602;28;20508;-36
2023/04/03 09:32:47;;;;;;;2.35;1.35;;;11.10;66.20;;;;;;5009730;28;20042;-36
2023/04/03 09:35:33;;;;;;;1.77;0.82;;;11.40;67.30;;;;;;5004190;28;20458;-36
2023/04/03 09:38:13;;;;;;;2.13;0.90;;;11.80;59.50;;;;;;5002764;28;20459;-35
2023/04/03 09:40:42;;;;;;;2.10;0.80;;;11.90;62.40;;;;;;5000327;28;20039;-36
2023/04/03 09:43:17;;;;;;;2.03;0.85;;;12.20;60.00;;;;;;5001735;28;20400;-37
2023/04/03 09:45:45;;;;;;;1.48;0.82;;;12.20;57.10;;;;;;5001978;28;20038;-36
2023/04/03 09:48:14;;;;;;;3.30;1.10;;;12.30;58.10;;;;;;4992531;28;20043;-37
2023/04/03 09:50:58;;;;;;;1.73;1.10;;;12.50;57.10;;;;;;4996544;28;20034;-36
2023/04/03 09:53:38;;;;;;;2.25;1.10;;;12.60;53.00;;;;;;4983181;28;20081;-35
2023/04/03 09:56:28;;;;;;;3.25;1.00;;;12.10;54.30;;;;;;4999207;28;20210;-37
2023/04/03 09:58:59;;;;;;;2.35;0.90;;;12.50;54.30;;;;;;4999593;28;20043;-37
2023/04/03 10:01:28;;;;;;;1.88;0.90;;;12.30;50.50;;;;;;4997234;28;20041;-37
2023/04/03 10:04:03;;;;;;;2.17;1.02;;;11.90;51.80;;;;;;4993824;28;20043;-37
2023/04/03 10:06:32;;;;;;;2.30;0.75;;;11.90;49.10;;;;;;5006248;28;20041;-35
2023/04/03 10:09:05;;;;;;;1.58;0.73;;;11.40;50.80;;;;;;5002124;28;20046;-35
2023/04/03 10:11:31;;;;;;;2.85;0.65;;;11.40;50.50;;;;;;4992603;28;20030;-37
2023/04/03 10:13:59;;;;;;;2.75;1.15;;;11.40;52.70;;;;;;4993847;28;20070;-37
2023/04/03 10:16:32;;;;;;;3.08;0.70;;;11.70;53.10;;;;;;4994632;28;20105;-37
2023/04/03 10:19:13;;;;;;;1.90;1.20;;;12.10;51.80;;;;;;4994596;28;20411;-34
2023/04/03 10:22:00;;;;;;;2.72;1.00;;;12.60;50.80;;;;;;4977087;28;20049;-35
2023/04/03 10:24:36;;;;;;;0.80;0.60;;;13.30;55.50;;;;;;4974647;28;20447;-35
2023/04/03 10:27:27;;;;;;;2.63;0.90;;;12.70;55.50;;;;;;5015002;28;20046;-35
2023/04/03 10:30:21;;;;;;;2.03;0.80;;;13.10;53.80;;;;;;4988301;28;20053;-35
2023/04/03 10:33:25;;;;;;;2.10;0.80;;;13.30;50.40;;;;;;4991807;28;20395;-35
2023/04/03 10:36:01;;;;;;;1.93;0.97;;;13.10;52.90;;;;;;4989213;28;20641;-35
2023/04/03 10:38:30;;;;;;;1.58;0.82;;;13.50;55.70;;;;;;5000356;28;20809;-35
2023/04/03 10:41:43;;;;;;;4.32;0.98;;;13.20;55.60;;;;;;5001679;28;20487;-34
2023/04/03 10:44:15;;;;;;;2.10;0.95;;;13.40;50.70;;;;;;4972832;28;20073;-35
2023/04/03 10:47:03;;;;;;;1.15;0.80;;;13.80;57.00;;;;;;5001152;28;20035;-35
2023/04/03 10:49:59;;;;;;;1.63;1.08;;;13.90;53.80;;;;;;5012825;28;20080;-35
2023/04/03 10:52:42;;;;;;;1.77;0.80;;;14.50;51.80;;;;;;5002158;28;20446;-35
2023/04/03 10:55:34;;;;;;;2.58;1.00;;;15.50;54.20;;;;;;4999950;28;20035;-35
2023/04/03 10:58:02;;;;;;;2.67;1.00;;;15.20;47.10;;;;;;5005798;28;20037;-35
2023/04/03 11:00:46;;;;;;;2.78;1.00;;;15.30;52.50;;;;;;4999790;28;20085;-35
2023/04/03 11:03:17;;;;;;;2.92;1.10;;;15.80;51.30;;;;;;5004496;28;20050;-35
2023/04/03 11:05:53;;;;;;;0.80;0.80;;;15.70;52.00;;;;;;4980732;28;20525;-35
2023/04/03 11:08:26;;;;;;;1.85;1.08;;;15.60;48.70;;;;;;5005896;28;20128;-35
2023/04/03 11:10:54;;;;;;;;;;;15.80;50.50;;;;;;4991953;28;20039;-36
2023/04/03 11:13:26;;;;;;;2.08;0.85;;;14.90;44.80;;;;;;4990846;28;19944;-35
2023/04/03 11:15:54;;;;;;;2.35;1.20;;;15.70;52.60;;;;;;4983579;28;20428;-35
2023/04/03 11:18:39;;;;;;;1.92;0.85;;;16.00;52.50;;;;;;4997960;28;20038;-35
2023/04/03 11:21:17;;;;;;;2.22;1.35;;;16.80;51.00;;;;;;4993093;28;20042;-35
2023/04/03 11:23:45;;;;;;;2.03;1.10;;;17.00;50.60;;;;;;4998771;28;20078;-35
2023/04/03 11:26:21;;;;;;;2.30;0.95;;;16.70;48.30;;;;;;4992156;28;20109;-36
2023/04/03 11:28:53;;;;;;;3.08;1.15;;;16.80;47.90;;;;;;4996583;28;20045;-36
2023/04/03 11:31:46;;;;;;;1.23;1.00;;;16.70;47.10;;;;;;5000840;28;20042;-36
2023/04/03 11:34:53;;;;;;;2.60;1.10;;;16.90;47.80;;;;;;4995655;28;20034;-35
2023/04/03 11:37:28;;;;;;;2.65;1.17;;;17.60;45.70;;;;;;4964609;28;20043;-36
2023/04/03 11:40:00;;;;;;;2.63;0.93;;;17.80;46.80;;;;;;4946955;28;20097;-35
2023/04/03 11:42:37;;;;;;;3.75;1.10;;;17.20;48.20;;;;;;4981830;28;20049;-36
2023/04/03 11:45:37;;;;;;;2.33;1.00;;;17.70;47.40;;;;;;5005843;28;20048;-35
2023/04/03 11:48:26;;;;;;;3.40;1.00;;;17.80;43.70;;;;;;4965895;28;20061;-36
2023/04/03 11:50:52;;;;;;;2.83;1.20;;;18.50;46.40;;;;;;5010959;28;20046;-36
2023/04/03 11:53:27;;;;;;;2.15;1.10;;;18.60;47.00;;;;;;5002443;28;20034;-37
2023/04/03 11:55:55;;;;;;;2.03;1.17;;;18.50;43.10;;;;;;5023934;28;20042;-36
2023/04/03 11:58:31;;;;;;;2.67;1.13;;;18.50;45.90;;;;;;4997515;28;20395;-36
2023/04/03 12:01:07;;;;;;;2.72;1.13;;;18.10;45.50;;;;;;4983609;28;20480;-36
2023/04/03 12:03:57;;;;;;;2.38;1.30;;;18.70;44.20;;;;;;5008531;28;20049;-36
2023/04/03 12:06:32;;;;;;;1.75;0.90;;;19.00;44.40;;;;;;4999151;28;20042;-36
2023/04/03 12:08:58;;;;;;;1.88;0.80;;;19.10;44.50;;;;;;5001297;28;20488;-36
2023/04/03 12:11:29;;;;;;;1.95;1.10;;;19.30;45.10;;;;;;4997509;28;20060;-36
2023/04/03 12:13:55;;;;;;;2.72;1.20;;;20.00;43.40;;;;;;5002661;28;20070;-36
2023/04/03 12:16:32;;;;;;;2.00;1.05;;;18.70;42.90;;;;;;5011018;28;20061;-36
2023/04/03 12:19:03;;;;;;;1.42;1.13;;;18.90;44.10;;;;;;5007885;28;20121;-36
2023/04/03 12:21:51;;;;;;;1.73;0.90;;;19.20;44.80;;;;;;4989201;28;20068;-36
2023/04/03 12:24:17;;;;;;;2.20;1.02;;;19.60;41.60;;;;;;5000119;28;20037;-37
2023/04/03 12:26:43;;;;;;;2.15;1.10;;;19.30;42.90;;;;;;4999147;28;20049;-36
2023/04/03 12:29:21;;;;;;;1.92;1.10;;;18.40;41.90;;;;;;4995119;28;20034;-36
2023/04/03 12:32:08;;;;;;;2.35;1.10;;;19.00;42.80;;;;;;4993808;28;20040;-36
2023/04/03 12:34:55;;;;;;;1.67;1.13;;;19.00;40.90;;;;;;4998756;28;20081;-37
2023/04/03 12:37:24;;;;;;;1.98;1.20;;;19.70;42.20;;;;;;4986213;28;20039;-37
2023/04/03 12:40:23;;;;;;;2.45;1.17;;;19.70;41.90;;;;;;4997627;28;20104;-36
2023/04/03 12:43:05;;;;;;;2.17;1.30;;;19.90;40.80;;;;;;4992693;28;20041;-37
2023/04/03 12:45:46;;;;;;;1.67;1.10;;;19.40;40.60;;;;;;4988981;28;20049;-36
2023/04/03 12:48:20;;;;;;;2.45;1.52;;;18.70;41.50;;;;;;4996785;28;20061;-36
2023/04/03 12:50:47;;;;;;;2.28;1.33;;;18.40;41.70;;;;;;4999880;28;20057;-36
2023/04/03 12:53:14;;;;;;;2.25;1.13;;;18.90;42.10;;;;;;4975772;28;20039;-36
2023/04/03 12:55:40;;;;;;;2.15;1.40;;;19.00;41.70;;;;;;4995835;28;20499;-37
2023/04/03 12:58:21;;;;;;;2.47;1.30;;;19.60;42.90;;;;;;4992754;28;20039;-36
2023/04/03 13:00:58;;;;;;;3.15;1.45;;;20.30;44.80;;;;;;5007278;28;20043;-36
2023/04/03 13:03:26;;;;;;;3.72;1.40;;;20.90;43.30;;;;;;4994137;28;20038;-37
2023/04/03 13:06:01;;;;;;;1.60;1.00;;;21.30;43.00;;;;;;4997125;28;20038;-37